GMT,Max TemperatureF,Mean TemperatureF,Min TemperatureF,Max Dew PointF,MeanDew PointF,Min DewpointF,Max Humidity, Mean Humidity, Min Humidity, Max Sea Level PressureIn, Mean Sea Level PressureIn, Min Sea Level PressureIn, Max VisibilityMiles, Mean VisibilityMiles, Min VisibilityMiles, Max Wind SpeedMPH, Mean Wind SpeedMPH, Max Gust SpeedMPH,PrecipitationIn, CloudCover, Events, WindDirDegrees
2012-11-1,49,46,42,41,40,37,87,77,64,29.25,29.03,28.82,12,7,5,21,16,37,0.03,3,Rain-Hail,283
2012-11-2,50,47,44,41,40,37,87,73,61,29.40,29.31,29.24,16,7,2,21,15,36,0.00,3,Rain-Hail,273
2012-11-3,49,46,42,41,40,37,87,76,61,29.49,29.43,29.36,12,8,4,21,15,40,0.00,4,Rain,259
2012-11-4,52,46,41,45,42,39,100,84,60,29.39,29.31,29.27,12,6,2,21,10,39,0.00,5,Rain,259
2012-11-5,50,46,41,45,41,37,100,83,67,30.12,29.74,29.39,16,8,6,23,15,34,0.08,3,Rain,11
2012-11-6,52,47,42,47,44,39,93,83,58,30.36,30.26,30.12,16,8,5,15,9,23,0.00,4,Rain,318
2012-11-7,52,50,48,46,44,43,87,79,69,30.40,30.33,30.24,16,8,6,12,9,,0.00,7,,285
2012-11-8,54,51,48,50,45,43,100,82,64,30.24,30.14,30.04,19,8,5,12,7,,0.01,5,Rain,293
2012-11-9,54,50,46,50,46,43,100,86,64,30.01,29.75,29.53,19,6,1,23,14,30,0.08,7,Rain,236
2012-11-10,51,46,41,46,42,37,93,86,72,29.67,29.51,29.44,16,8,5,15,8,26,0.08,4,Rain,297
2012-11-11,51,45,39,45,42,37,93,82,66,30.14,29.96,29.65,16,8,6,13,7,,0.01,4,Rain,315
2012-11-12,55,52,48,54,51,45,100,95,81,30.24,30.14,30.06,11,4,0,18,14,31,0.04,8,Fog-Rain,240
2012-11-13,55,54,53,54,51,46,100,89,77,30.27,30.24,30.21,12,7,3,16,14,28,0.00,7,,203
2012-11-14,55,50,46,51,48,46,100,87,76,30.25,30.20,30.18,12,7,2,22,12,,0.00,5,,111
2012-11-15,52,50,48,48,47,45,96,87,78,30.19,30.12,30.04,11,5,2,15,10,,0.00,7,Rain,105
2012-11-16,53,50,48,54,51,47,100,98,94,30.01,29.85,29.74,2,1,0,13,7,,0.08,8,Fog-Rain,117
2012-11-17,52,47,39,48,43,36,94,84,69,29.93,29.83,29.74,16,8,6,13,7,,0.00,4,Rain,327
2012-11-18,51,43,35,46,41,34,93,82,71,30.00,29.92,29.83,16,8,6,21,8,33,0.00,3,Fog,224
2012-11-19,55,52,51,54,51,46,100,94,80,29.80,29.69,29.62,12,4,0,29,20,46,0.08,8,Rain,204
2012-11-20,56,51,46,55,52,45,100,94,87,29.72,29.64,29.53,9,3,0,26,15,47,0.04,8,Rain,216
2012-11-21,53,48,44,52,47,43,100,90,74,29.91,29.80,29.59,16,5,1,25,13,37,0.02,6,Rain,271
2012-11-22,55,50,44,54,50,43,100,92,82,29.86,29.70,29.56,12,4,1,38,26,64,0.43,7,Rain,221
2012-11-23,53,45,37,48,43,37,100,88,79,29.96,29.87,29.71,16,8,6,13,8,,0.01,5,,289
2012-11-24,52,46,41,52,47,39,100,96,86,29.92,29.62,29.30,16,4,1,33,14,55,1.10,7,Rain,87
2012-11-25,53,50,46,51,47,41,94,88,73,29.75,29.61,29.42,16,7,1,25,19,47,0.24,5,Rain,241
2012-11-26,46,45,44,46,43,43,100,90,85,29.75,29.57,29.36,12,5,1,34,18,60,0.51,6,Rain,334
2012-11-27,47,46,44,45,43,41,93,88,79,29.99,29.81,29.68,12,6,2,24,20,44,0.24,6,Rain,23
2012-11-28,48,43,38,43,39,36,93,85,74,30.09,30.04,29.98,16,8,6,18,12,30,0.00,2,,39
2012-11-29,45,40,35,39,38,35,100,90,81,30.06,29.97,29.86,19,7,6,8,4,,0.01,5,Rain,74
2012-11-30,46,40,33,43,39,33,100,94,82,29.99,29.90,29.86,12,7,3,6,3,,0.01,5,Rain,186